Portada
METAR-TAF:

METAR-TAF

Aeroports :

Aeroport de Gran Canària

Gran Canària, Espanya

latitud: 27-56N, longitud: 015-23W, altitud: 23 m

Observació

L'informe es va fer fa 24 minuts, a les 09:30 UTC
Vent 11 kt del Nord/Nord-Est, variant entre Nord i Nord-Est
Temperatura 20°C
Humitat 64%
Pressió 1018 hPa
Visibilitat 10 km o més
Núvols disperses a una alçada de 3000 ft

METAR: GCLP 020930Z 02011KT 350V050 9999 SCT030 20/13 Q1018 NOSIG

Hora: 10:54 (09:54 UTC)

Pronòstic

L'informe es va fer fa 1 hora i 54 minuts, a les 08:00 UTC
Pronòstic vàlid del 02 a les 09 UTC al 03 a les 09 UTC
Vent 11 kt del Nord-Est
Visibilitat 10 km o més
Escasses núvols a una alçada de 3000 ft
Evolucionant progressivament
l' 02 a les 20 UTC al 02 a les 22 UTC
Vent 7 kt del Nord/Nord-Oest

TAF: GCLP 020800Z 0209/0309 04011KT 9999 FEW030 TX22/0213Z TN15/0306Z BECMG 0220/0222 33007KT

Observacions i pronòstics meteorològics de més de 4000 aeroports (METAR i TAF).

Les estacions disponibles són els punts grocs i vermells al mapa.

Posi el ratolí al punt desitjat per veure el nom de l'estació.

Feu clic per veure les observacions i els pronòstics meteorològics.

Per canviar el mapa: feu clic els botons verds amb una creu de color negre per apropar; al botó verd amb un guió per allunyar la imatge; o en les fletxes verdes per a mapes adjacents.


METAR-TAF: